Time;durP1;ratioP1;P1;durP2;ratioP2;P2;SDS_P1;SDS_P2;PMS_P1;PMS_P2;Temp;Humidity;BMP_temperature;BMP_pressure;BME280_temperature;BME280_humidity;BME280_pressure;Samples;Min_cycle;Max_cycle;Signal;HPM_P1;HPM_P2
2021/12/15 00:01:00;;;;;;;;;;;6.80;99.90;;;;;;5081502;28;19920;-79
2021/12/15 00:03:26;;;;;;;;;;;6.90;99.90;;;;;;5092914;28;20041;-81
2021/12/15 00:05:52;;;;;;;;;;;6.80;99.90;;;;;;5094160;28;20210;-79
2021/12/15 00:08:18;;;;;;;;;;;6.90;99.90;;;;;;5046569;28;19957;-80
2021/12/15 00:10:44;;;;;;;;;;;6.80;99.90;;;;;;5099421;28;19920;-78
2021/12/15 00:13:12;;;;;;;;;;;6.80;99.90;;;;;;5114718;28;19919;-79
2021/12/15 00:15:38;;;;;;;;;;;6.90;99.90;;;;;;5087121;28;19975;-79
2021/12/15 00:18:04;;;;;;;;;;;6.90;99.90;;;;;;5074487;28;19908;-78
2021/12/15 00:20:30;;;;;;;;;;;6.90;99.90;;;;;;5093985;28;20083;-78
2021/12/15 00:22:56;;;;;;;;;;;6.90;99.90;;;;;;5092413;28;20202;-79
2021/12/15 00:25:23;;;;;;;;;;;6.90;99.90;;;;;;5075850;28;19912;-79
2021/12/15 00:27:49;;;;;;;;;;;6.90;99.90;;;;;;5081613;28;19952;-78
2021/12/15 00:30:16;;;;;;;;;;;6.90;99.90;;;;;;5092716;28;19920;-79
2021/12/15 00:32:42;;;;;;;;;;;6.80;99.90;;;;;;5091854;28;19924;-79
2021/12/15 00:35:09;;;;;;;;;;;6.80;99.90;;;;;;5074514;28;20194;-78
2021/12/15 00:37:34;;;;;;;;;;;6.80;99.90;;;;;;5069544;28;20079;-79
2021/12/15 00:40:00;;;;;;;;;;;6.80;99.90;;;;;;5070281;28;19975;-79
2021/12/15 00:42:26;;;;;;;;;;;6.80;99.90;;;;;;5071946;28;19929;-79
2021/12/15 00:44:52;;;;;;;;;;;6.80;99.90;;;;;;5085420;28;19915;-79
2021/12/15 00:47:18;;;;;;;;;;;6.80;99.90;;;;;;5109901;28;20235;-79
2021/12/15 00:49:45;;;;;;;;;;;6.80;99.90;;;;;;5110341;28;19912;-78
2021/12/15 00:52:12;;;;;;;;;;;6.80;99.90;;;;;;5107567;28;19918;-78
2021/12/15 00:54:37;;;;;;;;;;;6.80;99.90;;;;;;5092388;28;19912;-79
2021/12/15 00:57:04;;;;;;;;;;;6.80;99.90;;;;;;5058733;28;19983;-79
2021/12/15 00:59:29;;;;;;;;;;;6.80;99.90;;;;;;5046494;28;19913;-80
2021/12/15 01:01:55;;;;;;;;;;;6.80;99.90;;;;;;5044419;28;19980;-80
2021/12/15 01:04:21;;;;;;;;;;;6.80;99.90;;;;;;5047641;28;19928;-78
2021/12/15 01:06:51;;;;;;;;;;;6.80;99.90;;;;;;5044782;28;19913;-79
2021/12/15 01:09:20;;;;;;;;;;;6.70;99.90;;;;;;5046064;28;19976;-78
2021/12/15 01:19:54;;;;;;;;;;;6.70;99.90;;;;;;5047047;28;19913;-79
2021/12/15 01:22:31;;;;;;;;;;;6.70;99.90;;;;;;5033807;28;19913;-79
2021/12/15 01:25:16;;;;;;;;;;;6.70;99.90;;;;;;5049486;28;19936;-78
2021/12/15 01:27:42;;;;;;;;;;;6.70;99.90;;;;;;5052827;28;19940;-78
2021/12/15 01:30:11;;;;;;;;;;;6.70;99.90;;;;;;5063262;28;19913;-78
2021/12/15 01:32:36;;;;;;;;;;;6.70;99.90;;;;;;5063816;28;19901;-79
2021/12/15 01:35:02;;;;;;;;;;;6.80;99.90;;;;;;5082904;28;19918;-79
2021/12/15 01:37:28;;;;;;;;;;;6.80;99.90;;;;;;5074841;28;19908;-79
2021/12/15 01:39:55;;;;;;;;;;;6.80;99.90;;;;;;5064452;28;20098;-78
2021/12/15 01:42:27;;;;;;;;;;;6.80;99.90;;;;;;5089954;28;19908;-80
2021/12/15 01:47:37;;;;;;;;;;;6.80;99.90;;;;;;5093566;28;19948;-79
2021/12/15 01:50:03;;;;;;;;;;;6.80;99.90;;;;;;5094660;28;20326;-79
2021/12/15 01:52:33;;;;;;;;;;;6.80;99.90;;;;;;5097112;28;19957;-78
2021/12/15 01:55:08;;;;;;;;;;;6.80;99.90;;;;;;5112177;28;20275;-79
2021/12/15 01:57:35;;;;;;;;;;;6.80;99.90;;;;;;5113261;28;20721;-78
2021/12/15 02:00:01;;;;;;;;;;;6.80;99.90;;;;;;5079479;28;19919;-80
2021/12/15 02:02:27;;;;;;;;;;;6.90;99.90;;;;;;5102837;28;19912;-78
2021/12/15 02:04:53;;;;;;;;;;;6.90;99.90;;;;;;5069177;28;19969;-78
2021/12/15 02:07:20;;;;;;;;;;;7.00;99.90;;;;;;5086210;28;19916;-80
2021/12/15 02:12:28;;;;;;;;;;;6.90;99.90;;;;;;5103824;28;20097;-80
2021/12/15 02:14:54;;;;;;;;;;;6.90;99.90;;;;;;5103789;28;19918;-78
2021/12/15 02:17:19;;;;;;;;;;;6.90;99.90;;;;;;5069450;28;19961;-80
2021/12/15 02:19:45;;;;;;;;;;;6.90;99.90;;;;;;5102953;28;19931;-78
2021/12/15 02:22:12;;;;;;;;;;;6.80;99.90;;;;;;5078800;28;19930;-78
2021/12/15 02:24:41;;;;;;;;;;;6.80;99.90;;;;;;5123565;28;20222;-79
2021/12/15 02:27:11;;;;;;;;;;;6.80;99.90;;;;;;5106321;28;19912;-79
2021/12/15 02:29:41;;;;;;;;;;;6.90;99.90;;;;;;5105473;28;20143;-78
2021/12/15 02:32:32;;;;;;;;;;;6.80;99.90;;;;;;5122690;28;19945;-78
2021/12/15 02:37:43;;;;;;;;;;;6.70;99.90;;;;;;5105554;28;20076;-79
2021/12/15 02:40:11;;;;;;;;;;;6.70;99.90;;;;;;5091435;28;19999;-79
2021/12/15 02:42:39;;;;;;;;;;;6.80;99.90;;;;;;5081976;28;19912;-80
2021/12/15 02:45:10;;;;;;;;;;;6.80;99.90;;;;;;5065259;28;19978;-79
2021/12/15 02:47:36;;;;;;;;;;;6.80;99.90;;;;;;5065299;28;19989;-80
2021/12/15 02:50:04;;;;;;;;;;;6.70;99.90;;;;;;5064562;28;19909;-79
2021/12/15 02:52:30;;;;;;;;;;;6.80;99.90;;;;;;5082768;28;19904;-78
2021/12/15 02:54:55;;;;;;;;;;;6.80;99.90;;;;;;5082485;28;20183;-78
2021/12/15 02:57:21;;;;;;;;;;;6.70;99.90;;;;;;5085233;28;19950;-79
2021/12/15 03:00:02;;;;;;;;;;;6.80;99.90;;;;;;5102318;28;20090;-79
2021/12/15 03:05:23;;;;;;;;;;;6.80;99.90;;;;;;5108058;28;19919;-80
2021/12/15 03:08:05;;;;;;;;;;;6.70;99.90;;;;;;5123156;28;19918;-79
2021/12/15 03:16:01;;;;;;;;;;;6.80;99.90;;;;;;5104986;28;20136;-79
2021/12/15 03:18:28;;;;;;;;;;;6.80;99.90;;;;;;5105354;28;19915;-79
2021/12/15 03:20:58;;;;;;;;;;;6.80;99.90;;;;;;5118473;28;19912;-78
2021/12/15 03:23:32;;;;;;;;;;;6.80;99.90;;;;;;5098544;28;19974;-78
2021/12/15 03:25:59;;;;;;;;;;;6.80;99.90;;;;;;5104690;28;20151;-79
2021/12/15 03:34:37;;;;;;;;;;;6.70;99.90;;;;;;5104176;28;20209;-78
2021/12/15 03:39:25;;;;;;;;;;;6.70;99.90;;;;;;5124300;28;20192;-79
2021/12/15 03:41:58;;;;;;;;;;;6.70;99.90;;;;;;5112030;28;20177;-79
2021/12/15 03:44:24;;;;;;;;;;;6.60;99.90;;;;;;5083872;28;19923;-78
2021/12/15 03:46:50;;;;;;;;;;;6.70;99.90;;;;;;5109162;28;19903;-79
2021/12/15 03:49:15;;;;;;;;;;;6.80;99.90;;;;;;5108264;28;20241;-79
2021/12/15 03:51:41;;;;;;;;;;;6.80;99.90;;;;;;5106533;28;19935;-78
2021/12/15 03:54:07;;;;;;;;;;;6.80;99.90;;;;;;5105599;28;19908;-78
2021/12/15 03:56:35;;;;;;;;;;;6.80;99.90;;;;;;5105539;28;19975;-78
2021/12/15 03:59:01;;;;;;;;;;;6.80;99.90;;;;;;5106155;28;19908;-79
2021/12/15 04:01:27;;;;;;;;;;;6.80;99.90;;;;;;5089753;28;19947;-80
2021/12/15 04:03:53;;;;;;;;;;;6.80;99.90;;;;;;5105307;28;19916;-80
2021/12/15 04:06:27;;;;;;;;;;;6.80;99.90;;;;;;5089230;28;19908;-78
2021/12/15 04:09:12;;;;;;;;;;;6.90;99.90;;;;;;5107265;28;19969;-80
2021/12/15 04:11:38;;;;;;;;;;;6.80;99.90;;;;;;5106281;28;19908;-81
2021/12/15 04:14:08;;;;;;;;;;;6.80;99.90;;;;;;5087439;28;19912;-79
2021/12/15 04:19:21;;;;;;;;;;;6.80;99.90;;;;;;5105962;28;20241;-80
2021/12/15 04:21:47;;;;;;;;;;;6.90;99.90;;;;;;5088227;28;19957;-80
2021/12/15 04:24:14;;;;;;;;;;;6.90;99.90;;;;;;5082948;28;19924;-79
2021/12/15 04:26:40;;;;;;;;;;;6.90;99.90;;;;;;5086150;28;19922;-79
2021/12/15 04:29:06;;;;;;;;;;;6.90;99.90;;;;;;5085591;28;19983;-79
2021/12/15 04:31:33;;;;;;;;;;;6.90;99.90;;;;;;5101962;28;20091;-80
2021/12/15 04:34:04;;;;;;;;;;;6.90;99.90;;;;;;5085399;28;19908;-80
2021/12/15 04:36:32;;;;;;;;;;;6.90;99.90;;;;;;5102030;28;19915;-79
2021/12/15 04:39:05;;;;;;;;;;;6.80;99.90;;;;;;5102551;28;19908;-78
2021/12/15 04:41:31;;;;;;;;;;;6.80;99.90;;;;;;5086786;28;19915;-78
2021/12/15 04:43:58;;;;;;;;;;;6.90;99.90;;;;;;5097740;28;19932;-79
2021/12/15 04:46:25;;;;;;;;;;;6.80;99.90;;;;;;5115287;28;19979;-79
2021/12/15 04:48:52;;;;;;;;;;;6.80;99.90;;;;;;5091934;28;19939;-82
2021/12/15 04:51:18;;;;;;;;;;;6.80;99.90;;;;;;5084725;28;19908;-80
2021/12/15 04:53:44;;;;;;;;;;;6.80;99.90;;;;;;5085310;28;19909;-79
2021/12/15 04:56:10;;;;;;;;;;;6.80;99.90;;;;;;5066388;28;20122;-79
2021/12/15 04:58:36;;;;;;;;;;;6.80;99.90;;;;;;5058818;28;19909;-79
2021/12/15 05:01:05;;;;;;;;;;;6.80;99.90;;;;;;5062886;28;19981;-80
2021/12/15 05:03:30;;;;;;;;;;;6.70;99.90;;;;;;5063618;28;19999;-79
2021/12/15 05:05:56;;;;;;;;;;;6.70;99.90;;;;;;5072450;28;20191;-79
2021/12/15 05:08:22;;;;;;;;;;;6.70;99.90;;;;;;5100560;28;19987;-78
2021/12/15 05:10:50;;;;;;;;;;;6.70;99.90;;;;;;5085143;28;19915;-79
2021/12/15 05:13:17;;;;;;;;;;;6.70;99.90;;;;;;5083625;28;19963;-78
2021/12/15 05:15:42;;;;;;;;;;;6.70;99.90;;;;;;5083473;28;20145;-78
2021/12/15 05:18:08;;;;;;;;;;;6.70;99.90;;;;;;5066734;28;19909;-79
2021/12/15 05:20:36;;;;;;;;;;;6.70;99.90;;;;;;5085119;28;19942;-79
2021/12/15 05:23:03;;;;;;;;;;;6.70;99.90;;;;;;5083014;28;19916;-81
2021/12/15 05:25:29;;;;;;;;;;;6.80;99.90;;;;;;5083903;28;19909;-80
2021/12/15 05:27:58;;;;;;;;;;;6.80;99.90;;;;;;5084050;28;19916;-81
2021/12/15 05:30:23;;;;;;;;;;;6.80;99.90;;;;;;5084803;28;19952;-79
2021/12/15 05:32:49;;;;;;;;;;;6.80;99.90;;;;;;5084523;28;19916;-79
2021/12/15 05:35:20;;;;;;;;;;;6.80;99.90;;;;;;5082862;28;19911;-79
2021/12/15 05:37:47;;;;;;;;;;;6.80;99.90;;;;;;5085094;28;20093;-78
2021/12/15 05:40:13;;;;;;;;;;;6.70;99.90;;;;;;5103201;28;19919;-80
2021/12/15 05:42:39;;;;;;;;;;;6.70;99.90;;;;;;5104166;28;20296;-79
2021/12/15 05:45:05;;;;;;;;;;;6.70;99.90;;;;;;5104355;28;19920;-79
2021/12/15 05:47:31;;;;;;;;;;;6.70;99.90;;;;;;5094979;28;19909;-79
2021/12/15 05:49:57;;;;;;;;;;;6.70;99.90;;;;;;5084171;28;19969;-78
2021/12/15 05:52:27;;;;;;;;;;;6.70;99.90;;;;;;5084370;28;19905;-79
2021/12/15 05:54:52;;;;;;;;;;;6.70;99.90;;;;;;5075338;28;20191;-79
2021/12/15 05:57:18;;;;;;;;;;;6.70;99.90;;;;;;5103937;28;19908;-78
2021/12/15 05:59:43;;;;;;;;;;;6.70;99.90;;;;;;5103574;28;20118;-79
2021/12/15 06:02:09;;;;;;;;;;;6.80;99.90;;;;;;5095490;28;19956;-78
2021/12/15 06:04:35;;;;;;;;;;;6.70;99.90;;;;;;5097535;28;19923;-77
2021/12/15 06:07:01;;;;;;;;;;;6.70;99.90;;;;;;5086973;28;19905;-80
2021/12/15 06:09:27;;;;;;;;;;;6.70;99.90;;;;;;5084386;28;19908;-78
2021/12/15 06:11:53;;;;;;;;;;;6.70;99.90;;;;;;5103993;28;20214;-78
2021/12/15 06:14:23;;;;;;;;;;;6.70;99.90;;;;;;5102685;28;19908;-80
2021/12/15 06:16:53;;;;;;;;;;;6.70;99.90;;;;;;5098474;28;19936;-79
2021/12/15 06:19:18;;;;;;;;;;;6.70;99.90;;;;;;5068798;28;19913;-78
2021/12/15 06:21:44;;;;;;;;;;;6.70;99.90;;;;;;5066784;28;19920;-79
2021/12/15 06:24:10;;;;;;;;;;;6.60;99.90;;;;;;5105982;28;19961;-79
2021/12/15 06:26:39;;;;;;;;;;;6.60;99.90;;;;;;5102852;28;19912;-77
2021/12/15 06:29:04;;;;;;;;;;;6.60;99.90;;;;;;5101731;28;20482;-78
2021/12/15 06:31:30;;;;;;;;;;;6.60;99.90;;;;;;5100833;28;19963;-78
2021/12/15 06:33:56;;;;;;;;;;;6.60;99.90;;;;;;5100473;28;19975;-80
2021/12/15 06:36:21;;;;;;;;;;;6.60;99.90;;;;;;5111289;28;19923;-79
2021/12/15 06:38:53;;;;;;;;;;;6.60;99.90;;;;;;5120475;28;19908;-80
2021/12/15 06:41:19;;;;;;;;;;;6.60;99.90;;;;;;5120452;28;19919;-78
2021/12/15 06:43:48;;;;;;;;;;;6.60;99.90;;;;;;5102388;28;19958;-78
2021/12/15 06:59:56;;;;;;;;;;;6.60;99.90;;;;;;5119919;28;19911;-78
2021/12/15 07:02:21;;;;;;;;;;;6.60;99.90;;;;;;5111366;28;19980;-78
2021/12/15 07:04:47;;;;;;;;;;;6.70;99.90;;;;;;5080900;28;19924;-77
2021/12/15 07:07:13;;;;;;;;;;;6.70;99.90;;;;;;5096995;28;19912;-79
2021/12/15 07:09:39;;;;;;;;;;;6.70;99.90;;;;;;5081087;28;20182;-81
2021/12/15 07:12:05;;;;;;;;;;;6.70;99.90;;;;;;5099892;28;20190;-79
2021/12/15 07:14:31;;;;;;;;;;;6.70;99.90;;;;;;5109708;28;19919;-79
2021/12/15 07:16:58;;;;;;;;;;;6.70;99.90;;;;;;5097558;28;19916;-79
2021/12/15 07:22:08;;;;;;;;;;;6.60;99.90;;;;;;5067126;28;19920;-79
2021/12/15 07:24:36;;;;;;;;;;;6.60;99.90;;;;;;5085770;28;24787;-79
2021/12/15 07:27:03;;;;;;;;;;;6.60;99.90;;;;;;5094403;28;19924;-78
2021/12/15 07:29:29;;;;;;;;;;;6.60;99.90;;;;;;5065285;28;20060;-79
2021/12/15 07:31:55;;;;;;;;;;;6.60;99.90;;;;;;5101069;28;19908;-79
2021/12/15 07:34:20;;;;;;;;;;;6.70;99.90;;;;;;5054869;28;19947;-77
2021/12/15 07:36:53;;;;;;;;;;;6.70;99.90;;;;;;5103815;28;19943;-77
2021/12/15 07:39:20;;;;;;;;;;;6.70;99.90;;;;;;5087100;28;19975;-77
2021/12/15 07:41:52;;;;;;;;;;;6.70;99.90;;;;;;5070801;28;19912;-78
2021/12/15 07:44:23;;;;;;;;;;;6.70;99.90;;;;;;5091870;28;19947;-80
2021/12/15 07:46:50;;;;;;;;;;;6.70;99.90;;;;;;5072938;28;20199;-78
2021/12/15 07:49:16;;;;;;;;;;;6.70;99.90;;;;;;5087004;28;20132;-76
2021/12/15 07:51:44;;;;;;;;;;;6.70;99.90;;;;;;5087706;28;19912;-77
2021/12/15 07:54:10;;;;;;;;;;;6.70;99.90;;;;;;5090620;28;19919;-78
2021/12/15 07:56:36;;;;;;;;;;;6.70;99.90;;;;;;5094875;28;19908;-82
2021/12/15 07:59:02;;;;;;;;;;;6.80;99.90;;;;;;5093814;28;19912;-79
2021/12/15 08:01:28;;;;;;;;;;;6.80;99.90;;;;;;5073768;28;19926;-77
2021/12/15 08:03:55;;;;;;;;;;;6.80;99.90;;;;;;5075397;28;19920;-77
2021/12/15 08:06:24;;;;;;;;;;;6.80;99.90;;;;;;5075390;28;19924;-77
2021/12/15 08:08:50;;;;;;;;;;;6.70;99.90;;;;;;5086705;28;19912;-76
2021/12/15 08:11:16;;;;;;;;;;;6.70;99.90;;;;;;5107012;28;19930;-76
2021/12/15 08:13:41;;;;;;;;;;;6.70;99.90;;;;;;5103722;28;19916;-78
2021/12/15 08:16:07;;;;;;;;;;;6.70;99.90;;;;;;5097870;28;19920;-78
2021/12/15 08:18:33;;;;;;;;;;;6.80;99.90;;;;;;5113272;28;19920;-78
2021/12/15 08:21:00;;;;;;;;;;;6.80;99.90;;;;;;5094831;28;19912;-78
2021/12/15 08:23:26;;;;;;;;;;;6.70;99.90;;;;;;5090985;28;20260;-77
2021/12/15 08:25:52;;;;;;;;;;;6.70;99.90;;;;;;5092504;28;19916;-79
2021/12/15 08:28:18;;;;;;;;;;;6.70;99.90;;;;;;5095535;28;19947;-78
2021/12/15 08:30:44;;;;;;;;;;;6.80;99.90;;;;;;5076312;28;19912;-79
2021/12/15 08:33:12;;;;;;;;;;;6.80;99.90;;;;;;5072968;28;20130;-80
2021/12/15 08:35:40;;;;;;;;;;;6.90;99.90;;;;;;5073521;28;19980;-79
2021/12/15 08:38:07;;;;;;;;;;;6.90;99.90;;;;;;5092777;28;20211;-78
2021/12/15 08:40:54;;;;;;;;;;;6.90;99.90;;;;;;5095282;28;20106;-78
2021/12/15 08:43:21;;;;;;;;;;;6.90;99.90;;;;;;5093789;28;19916;-77
2021/12/15 08:45:50;;;;;;;;;;;7.00;99.90;;;;;;5094100;28;19939;-80
2021/12/15 08:48:16;;;;;;;;;;;6.90;99.90;;;;;;5081383;28;20242;-79
2021/12/15 08:50:42;;;;;;;;;;;7.00;99.90;;;;;;5070285;28;19919;-79
2021/12/15 08:53:10;;;;;;;;;;;7.00;99.90;;;;;;5074199;28;19915;-79
2021/12/15 08:55:41;;;;;;;;;;;7.00;99.90;;;;;;5075677;28;19920;-79
2021/12/15 08:58:07;;;;;;;;;;;7.00;99.90;;;;;;5072432;28;19955;-76
2021/12/15 09:00:33;;;;;;;;;;;7.00;99.90;;;;;;5070755;28;20161;-77
2021/12/15 09:02:58;;;;;;;;;;;6.90;99.90;;;;;;5070695;28;19937;-78
2021/12/15 09:05:25;;;;;;;;;;;7.00;99.90;;;;;;5058061;28;19912;-78
2021/12/15 09:07:56;;;;;;;;;;;6.90;99.90;;;;;;5069540;28;19921;-78
2021/12/15 09:10:23;;;;;;;;;;;7.00;99.90;;;;;;5070402;28;20139;-78
2021/12/15 09:12:49;;;;;;;;;;;7.00;99.90;;;;;;5076184;28;19913;-79
2021/12/15 09:15:15;;;;;;;;;;;7.00;99.90;;;;;;5091976;28;19909;-78
2021/12/15 09:17:41;;;;;;;;;;;7.00;99.90;;;;;;5075120;28;19924;-76
2021/12/15 09:20:08;;;;;;;;;;;7.10;99.90;;;;;;5076555;28;19927;-78
2021/12/15 09:22:35;;;;;;;;;;;7.10;99.90;;;;;;5080971;28;19920;-79
2021/12/15 09:25:00;;;;;;;;;;;7.20;99.90;;;;;;5079423;28;19912;-78
2021/12/15 09:27:26;;;;;;;;;;;7.30;99.90;;;;;;5078637;28;20133;-77
2021/12/15 09:29:52;;;;;;;;;;;7.20;99.90;;;;;;5075029;28;23541;-78
2021/12/15 09:32:19;;;;;;;;;;;7.40;99.90;;;;;;5053844;28;19919;-78
2021/12/15 09:34:45;;;;;;;;;;;7.30;99.90;;;;;;5053727;28;20098;-78
2021/12/15 09:37:10;;;;;;;;;;;7.30;99.90;;;;;;5096522;28;19914;-80
2021/12/15 09:39:36;;;;;;;;;;;7.20;99.90;;;;;;5112916;28;19933;-78
2021/12/15 09:42:05;;;;;;;;;;;7.30;99.90;;;;;;5095525;28;20157;-79
2021/12/15 09:44:31;;;;;;;;;;;7.20;99.90;;;;;;5113064;28;19951;-78
2021/12/15 09:47:11;;;;;;;;;;;7.20;99.90;;;;;;5078416;28;20154;-80
2021/12/15 10:03:31;;;;;;;;;;;7.30;99.90;;;;;;5087029;28;19991;-79
2021/12/15 10:06:35;;;;;;;;;;;7.40;99.90;;;;;;5088365;28;19913;-79
2021/12/15 10:20:02;;;;;;;;;;;7.60;99.90;;;;;;5077918;28;19912;-78
2021/12/15 10:22:39;;;;;;;;;;;7.70;99.90;;;;;;5091533;28;20206;-80
2021/12/15 10:25:30;;;;;;;;;;;7.70;99.90;;;;;;5101370;28;19973;-81
2021/12/15 10:28:06;;;;;;;;;;;7.70;99.90;;;;;;5070889;28;19916;-79
2021/12/15 10:30:40;;;;;;;;;;;7.70;99.90;;;;;;5054230;28;19913;-81
2021/12/15 10:33:15;;;;;;;;;;;7.70;99.90;;;;;;5055009;28;19919;-78
2021/12/15 10:35:43;;;;;;;;;;;7.80;99.90;;;;;;5066278;28;19928;-80
2021/12/15 10:38:17;;;;;;;;;;;7.70;99.90;;;;;;5100910;28;19995;-80
2021/12/15 10:40:52;;;;;;;;;;;7.60;99.90;;;;;;5069110;28;19911;-80
2021/12/15 10:43:23;;;;;;;;;;;7.70;99.90;;;;;;5068863;28;20076;-79
2021/12/15 10:45:51;;;;;;;;;;;7.70;99.90;;;;;;5088723;28;19974;-80
2021/12/15 10:48:34;;;;;;;;;;;7.60;99.90;;;;;;5086057;28;19999;-79
2021/12/15 10:54:13;;;;;;;;;;;7.50;99.90;;;;;;5088565;28;20185;-78
2021/12/15 10:56:40;;;;;;;;;;;7.50;99.90;;;;;;5053581;28;19920;-78
2021/12/15 10:59:10;;;;;;;;;;;7.50;99.90;;;;;;5054499;28;19917;-80
2021/12/15 11:01:36;;;;;;;;;;;7.60;99.90;;;;;;5057286;28;20233;-79
2021/12/15 11:04:03;;;;;;;;;;;7.50;99.90;;;;;;5063385;28;21194;-77
2021/12/15 11:06:33;;;;;;;;;;;7.40;99.90;;;;;;5066297;28;20272;-78
2021/12/15 11:09:20;;;;;;;;;;;7.30;99.90;;;;;;5084486;28;19919;-79
2021/12/15 11:12:05;;;;;;;;;;;7.30;99.90;;;;;;5085027;28;19912;-77
2021/12/15 11:14:35;;;;;;;;;;;7.30;99.90;;;;;;5061812;28;19963;-79
2021/12/15 11:17:05;;;;;;;;;;;7.30;99.90;;;;;;5069755;28;19935;-80
2021/12/15 11:19:42;;;;;;;;;;;7.30;99.90;;;;;;5081909;28;19912;-78
2021/12/15 11:22:26;;;;;;;;;;;7.30;99.90;;;;;;5105109;27;19912;-79
2021/12/15 11:24:52;;;;;;;;;;;7.30;99.90;;;;;;5116552;28;19920;-78
2021/12/15 11:27:18;;;;;;;;;;;7.30;99.90;;;;;;5097739;28;19918;-80
2021/12/15 11:29:44;;;;;;;;;;;7.30;99.90;;;;;;5118163;28;19912;-81
2021/12/15 11:32:28;;;;;;;;;;;7.40;99.90;;;;;;5096140;28;19979;-78
2021/12/15 11:35:04;;;;;;;;;;;7.40;99.90;;;;;;5099967;28;19920;-80
2021/12/15 11:37:46;;;;;;;;;;;7.50;99.90;;;;;;5089466;28;19924;-81
2021/12/15 11:40:12;;;;;;;;;;;7.50;99.90;;;;;;5089586;28;19919;-80
2021/12/15 11:42:41;;;;;;;;;;;7.50;99.90;;;;;;5078216;28;19967;-78
2021/12/15 11:45:08;;;;;;;;;;;7.60;99.90;;;;;;5077872;28;19924;-79
2021/12/15 11:47:33;;;;;;;;;;;7.60;99.90;;;;;;5072661;28;20265;-80
2021/12/15 11:50:25;;;;;;;;;;;7.60;99.90;;;;;;5092174;28;19923;-79
2021/12/15 11:52:51;;;;;;;;;;;7.60;99.90;;;;;;5098009;28;20300;-78
2021/12/15 11:55:25;;;;;;;;;;;7.70;99.90;;;;;;5082348;28;19916;-80
2021/12/15 11:57:51;;;;;;;;;;;7.70;99.90;;;;;;5083208;28;19912;-76
2021/12/15 12:00:24;;;;;;;;;;;7.70;99.90;;;;;;5091908;28;19946;-79
2021/12/15 12:02:52;;;;;;;;;;;7.70;99.90;;;;;;5102405;28;19964;-79
2021/12/15 12:05:24;;;;;;;;;;;7.50;99.90;;;;;;5103212;28;19908;-76
2021/12/15 12:07:54;;;;;;;;;;;7.50;99.90;;;;;;5085809;28;20219;-78
2021/12/15 12:10:25;;;;;;;;;;;7.50;99.90;;;;;;5102396;28;19920;-78
2021/12/15 12:13:02;;;;;;;;;;;7.40;99.90;;;;;;5103434;28;19912;-79
2021/12/15 12:15:34;;;;;;;;;;;7.50;99.90;;;;;;5085105;28;19971;-78
2021/12/15 12:18:18;;;;;;;;;;;7.60;99.90;;;;;;5115704;28;20186;-79
2021/12/15 12:20:47;;;;;;;;;;;7.50;99.90;;;;;;5124745;28;19980;-78
2021/12/15 12:23:14;;;;;;;;;;;7.50;99.90;;;;;;5123113;28;19939;-78
2021/12/15 12:25:42;;;;;;;;;;;7.60;99.90;;;;;;5121455;28;19977;-80
2021/12/15 12:28:14;;;;;;;;;;;7.60;99.90;;;;;;5104624;28;19912;-79
2021/12/15 12:30:44;;;;;;;;;;;7.60;99.90;;;;;;5096043;28;20210;-79
2021/12/15 12:33:10;;;;;;;;;;;7.50;99.90;;;;;;5087707;28;19974;-78
2021/12/15 12:35:42;;;;;;;;;;;7.60;99.90;;;;;;5099617;28;19920;-79
2021/12/15 12:38:13;;;;;;;;;;;7.70;99.90;;;;;;5086968;28;19912;-79
2021/12/15 12:40:47;;;;;;;;;;;7.80;99.90;;;;;;5068258;28;19962;-80
2021/12/15 12:43:18;;;;;;;;;;;7.80;99.90;;;;;;5081173;28;19939;-78
2021/12/15 12:45:51;;;;;;;;;;;7.90;99.90;;;;;;5080623;28;19943;-79
2021/12/15 12:48:51;;;;;;;;;;;7.90;99.90;;;;;;5069730;28;19912;-79
2021/12/15 12:59:27;;;;;;;;;;;7.80;99.90;;;;;;5080146;28;19926;-80
2021/12/15 13:01:53;;;;;;;;;;;7.80;99.90;;;;;;5077528;28;19912;-79
2021/12/15 13:04:19;;;;;;;;;;;7.80;99.90;;;;;;5094813;28;20282;-79
2021/12/15 13:06:44;;;;;;;;;;;7.80;99.90;;;;;;5118424;28;19946;-78
2021/12/15 13:09:15;;;;;;;;;;;7.80;99.90;;;;;;5097779;28;20007;-76
2021/12/15 13:11:43;;;;;;;;;;;7.80;99.90;;;;;;5097222;28;19918;-79
2021/12/15 13:16:55;;;;;;;;;;;7.80;99.90;;;;;;5068046;28;19921;-78
2021/12/15 13:19:25;;;;;;;;;;;7.80;99.90;;;;;;5079724;28;19915;-79
2021/12/15 13:22:23;;;;;;;;;;;7.80;99.90;;;;;;5053072;28;19919;-78
2021/12/15 13:30:34;;;;;;;;;;;7.70;99.90;;;;;;5077485;28;20403;-78
2021/12/15 13:33:12;;;;;;;;;;;7.70;99.90;;;;;;5093442;28;19927;-78
2021/12/15 13:35:48;;;;;;;;;;;7.80;99.90;;;;;;5094697;28;20213;-78
2021/12/15 13:38:28;;;;;;;;;;;7.80;99.90;;;;;;5081149;28;19912;-79
2021/12/15 13:40:54;;;;;;;;;;;7.70;99.90;;;;;;5077677;28;19912;-78
2021/12/15 13:43:40;;;;;;;;;;;7.50;99.90;;;;;;5065783;28;20030;-79
2021/12/15 13:46:07;;;;;;;;;;;7.60;99.90;;;;;;5096449;28;19928;-77
2021/12/15 13:48:57;;;;;;;;;;;7.50;99.90;;;;;;5082214;28;19967;-80
2021/12/15 13:51:45;;;;;;;;;;;7.40;99.90;;;;;;5066125;28;20210;-78
2021/12/15 13:54:29;;;;;;;;;;;7.40;99.90;;;;;;5076106;28;19912;-79
2021/12/15 13:56:55;;;;;;;;;;;7.50;99.90;;;;;;5058546;28;19913;-79
2021/12/15 13:59:32;;;;;;;;;;;7.60;99.90;;;;;;5062738;28;19932;-78
2021/12/15 14:02:15;;;;;;;;;;;7.50;99.90;;;;;;5077419;28;19918;-78
2021/12/15 14:04:42;;;;;;;;;;;7.50;99.90;;;;;;5093881;28;19932;-78
2021/12/15 14:07:27;;;;;;;;;;;7.40;99.90;;;;;;5093888;28;19983;-79
2021/12/15 14:09:52;;;;;;;;;;;7.40;99.90;;;;;;5101277;28;19912;-77
2021/12/15 14:12:37;;;;;;;;;;;7.40;99.90;;;;;;5082086;28;19920;-78
2021/12/15 14:15:03;;;;;;;;;;;7.40;99.90;;;;;;5100079;28;19912;-77
2021/12/15 14:17:29;;;;;;;;;;;7.50;99.90;;;;;;5105942;28;19916;-79
2021/12/15 14:19:54;;;;;;;;;;;7.50;99.90;;;;;;5109211;28;20197;-79
2021/12/15 14:22:20;;;;;;;;;;;7.50;99.90;;;;;;5097713;28;20000;-78
2021/12/15 14:24:46;;;;;;;;;;;7.40;99.90;;;;;;5098330;28;20194;-78
2021/12/15 14:27:12;;;;;;;;;;;7.30;99.90;;;;;;5080667;28;20190;-79
2021/12/15 14:29:38;;;;;;;;;;;7.30;99.90;;;;;;5079683;28;19912;-79
2021/12/15 14:32:05;;;;;;;;;;;7.40;99.90;;;;;;5098061;28;19908;-78
2021/12/15 14:34:32;;;;;;;;;;;7.40;99.90;;;;;;5096300;28;19924;-79
2021/12/15 14:37:02;;;;;;;;;;;7.50;99.90;;;;;;5096532;28;19912;-78
2021/12/15 14:39:30;;;;;;;;;;;7.40;99.90;;;;;;5097115;28;19935;-78
2021/12/15 14:42:00;;;;;;;;;;;7.40;99.90;;;;;;5096198;28;19919;-77
2021/12/15 14:44:27;;;;;;;;;;;7.30;99.90;;;;;;5096833;28;20105;-78
2021/12/15 14:46:55;;;;;;;;;;;7.30;99.90;;;;;;5093020;28;19991;-78
2021/12/15 14:49:24;;;;;;;;;;;7.20;99.90;;;;;;5095126;28;19964;-80
2021/12/15 14:51:50;;;;;;;;;;;7.20;99.90;;;;;;5078814;28;19952;-78
2021/12/15 14:54:19;;;;;;;;;;;7.10;99.90;;;;;;5078274;28;19909;-78
2021/12/15 14:56:47;;;;;;;;;;;7.10;99.90;;;;;;5096483;28;19916;-79
2021/12/15 14:59:15;;;;;;;;;;;7.00;99.90;;;;;;5098203;28;19928;-78
2021/12/15 15:01:41;;;;;;;;;;;7.00;99.90;;;;;;5076592;28;19979;-78
2021/12/15 15:04:08;;;;;;;;;;;7.10;99.90;;;;;;5078367;28;19943;-77
2021/12/15 15:06:34;;;;;;;;;;;7.00;99.90;;;;;;5077616;28;19916;-77
2021/12/15 15:09:18;;;;;;;;;;;7.00;99.90;;;;;;5080044;28;19953;-80
2021/12/15 15:11:48;;;;;;;;;;;6.90;99.90;;;;;;5072666;28;20206;-78
2021/12/15 15:14:14;;;;;;;;;;;6.90;99.90;;;;;;5107631;28;19935;-79
2021/12/15 15:16:39;;;;;;;;;;;6.90;99.90;;;;;;5113379;28;19908;-77
2021/12/15 15:19:15;;;;;;;;;;;6.90;99.90;;;;;;5133157;28;19967;-76
2021/12/15 15:21:41;;;;;;;;;;;6.90;99.90;;;;;;5102561;28;19963;-79
2021/12/15 15:24:07;;;;;;;;;;;6.90;99.90;;;;;;5119502;28;19927;-78
2021/12/15 15:26:32;;;;;;;;;;;6.90;99.90;;;;;;5084910;28;19912;-78
2021/12/15 15:28:58;;;;;;;;;;;6.90;99.90;;;;;;5101944;28;19919;-78
2021/12/15 15:31:30;;;;;;;;;;;6.90;99.90;;;;;;5087223;28;20095;-79
2021/12/15 15:33:58;;;;;;;;;;;6.90;99.90;;;;;;5082462;28;19912;-78
2021/12/15 15:36:27;;;;;;;;;;;6.90;99.90;;;;;;5104094;28;19912;-78
2021/12/15 15:38:54;;;;;;;;;;;6.90;99.90;;;;;;5093436;28;19909;-78
2021/12/15 15:41:20;;;;;;;;;;;6.90;99.90;;;;;;5077328;28;19912;-79
2021/12/15 15:43:48;;;;;;;;;;;6.90;99.90;;;;;;5075944;28;20095;-79
2021/12/15 15:46:19;;;;;;;;;;;6.90;99.90;;;;;;5076937;28;19959;-78
2021/12/15 15:48:46;;;;;;;;;;;6.80;99.90;;;;;;5058400;28;19928;-79
2021/12/15 15:51:13;;;;;;;;;;;6.80;99.90;;;;;;5079228;28;19919;-78
2021/12/15 15:53:39;;;;;;;;;;;6.80;99.90;;;;;;5058623;28;19912;-78
2021/12/15 15:56:13;;;;;;;;;;;6.80;99.90;;;;;;5077145;28;19913;-79
2021/12/15 15:58:44;;;;;;;;;;;6.80;99.90;;;;;;5077519;28;19913;-77
2021/12/15 16:01:10;;;;;;;;;;;6.80;99.90;;;;;;5074042;28;19919;-78
2021/12/15 16:03:36;;;;;;;;;;;6.70;99.90;;;;;;5059150;28;19959;-79
2021/12/15 16:06:03;;;;;;;;;;;6.70;99.90;;;;;;5096670;28;19940;-78
2021/12/15 16:08:30;;;;;;;;;;;6.70;99.90;;;;;;5076855;28;20178;-79
2021/12/15 16:10:56;;;;;;;;;;;6.70;99.90;;;;;;5096097;28;19981;-78
2021/12/15 16:13:24;;;;;;;;;;;6.70;99.90;;;;;;5096491;28;19916;-77
2021/12/15 16:15:51;;;;;;;;;;;6.70;99.90;;;;;;5093887;28;19919;-78
2021/12/15 16:18:22;;;;;;;;;;;6.70;99.90;;;;;;5078703;28;19908;-78